Eldorado, Ohio
Current Conditions -  °F | °C
As of 3:35 PM on Saturday 25 Oct 2014 (Local Time) from KVES Reporting Station
Clear Clear  
Wind Chill: 73°   Ceiling: Unl
Heat Index: 73°   Visibility: 10mi
Dew Point: 50°   Wind: 13mph
Humidity: 44%   Direction: 280°W
Pressure: 29.88"   Gusts: 22mph
Location:  39.9°N, 84.67°W
Report Text: KVES 251935Z AUTO 28011G19KT 10SM CLR 23/10 A2988 RMK AO2
Loading
Personal Weather Stations






























Interactive Weather Map
Tropical Storm Tracking
New forecast layout! Learn more

10-Day Weather Forecast

Advertisements
Track Severe Weather on mobile